createdAt,value
2023-01-09T00:00:32.728Z,6.48
2023-01-09T00:01:32.687Z,6.26
2023-01-09T00:02:32.691Z,6.54
2023-01-09T00:03:32.668Z,6.57
2023-01-09T00:04:32.576Z,7.44
2023-01-09T00:54:38.030Z,4.36
2023-01-09T00:55:38.971Z,6.81
2023-01-09T00:56:38.935Z,7.11
2023-01-09T00:57:38.918Z,6.08
2023-01-09T00:58:38.873Z,7.05
2023-01-09T00:59:38.831Z,6.80
2023-01-09T01:00:38.806Z,6.50
2023-01-09T01:01:38.963Z,7.41
2023-01-09T01:02:38.801Z,7.01
2023-01-09T01:03:38.749Z,6.35
2023-01-09T01:04:38.686Z,6.63
2023-01-09T01:05:38.648Z,7.14
2023-01-09T01:06:38.632Z,7.05
2023-01-09T01:07:38.618Z,6.28
2023-01-09T01:08:38.552Z,6.49
2023-01-09T01:09:38.552Z,6.11
2023-01-09T01:10:38.519Z,6.42
2023-01-09T01:11:38.488Z,6.58
2023-01-09T01:12:38.430Z,7.00
2023-01-09T01:13:38.413Z,6.28
2023-01-09T01:14:38.379Z,6.98
2023-01-09T01:15:38.347Z,6.94
2023-01-09T01:16:38.327Z,7.33
2023-01-09T01:17:38.310Z,5.91
2023-01-09T01:18:38.243Z,6.35
2023-01-09T01:19:38.214Z,6.83
2023-01-09T01:20:38.176Z,6.52
2023-01-09T01:21:38.148Z,6.61
2023-01-09T01:22:38.111Z,6.94
2023-01-09T01:23:38.075Z,6.77
2023-01-09T01:24:38.045Z,7.21
2023-01-09T01:25:38.010Z,6.91
2023-01-09T01:26:37.994Z,6.93
2023-01-09T01:27:37.957Z,6.10
2023-01-09T01:28:37.910Z,6.90
2023-01-09T01:29:37.882Z,6.45
2023-01-09T01:30:37.909Z,5.73
2023-01-09T01:31:37.815Z,6.87
2023-01-09T01:32:37.779Z,6.32
2023-01-09T01:33:37.754Z,6.51
2023-01-09T01:34:37.722Z,6.78
2023-01-09T01:35:37.679Z,6.81
2023-01-09T01:36:37.645Z,6.27
2023-01-09T01:37:37.611Z,6.28
2023-01-09T01:38:37.585Z,6.64
2023-01-09T01:39:37.545Z,6.84
2023-01-09T01:40:37.515Z,6.38
2023-01-09T01:41:37.484Z,6.82
2023-01-09T01:42:37.479Z,5.95
2023-01-09T01:43:37.429Z,7.00
2023-01-09T01:44:37.410Z,6.56
2023-01-09T01:45:37.401Z,6.41
2023-01-09T01:46:37.345Z,6.43
2023-01-09T01:47:37.366Z,6.06
2023-01-09T01:48:37.279Z,7.15
2023-01-09T01:49:37.257Z,6.28
2023-01-09T01:50:37.228Z,6.88
2023-01-09T01:51:37.193Z,6.30
2023-01-09T01:52:37.173Z,6.36
2023-01-09T01:53:37.155Z,6.34
2023-01-09T01:54:37.110Z,6.06
2023-01-09T01:55:37.062Z,6.20
2023-01-09T01:56:37.041Z,6.90
2023-01-09T01:57:37.002Z,6.56
2023-01-09T01:58:36.989Z,6.00
2023-01-09T01:59:36.934Z,6.15
2023-01-09T02:00:36.902Z,6.91
2023-01-09T02:01:37.975Z,6.05
2023-01-09T02:02:36.887Z,6.29
2023-01-09T02:03:36.797Z,6.08
2023-01-09T02:04:36.760Z,6.15
2023-01-09T02:05:36.726Z,6.56
2023-01-09T02:06:36.705Z,6.42
2023-01-09T02:07:36.671Z,6.22
2023-01-09T02:08:36.647Z,5.71
2023-01-09T02:09:36.593Z,6.92
2023-01-09T02:10:36.558Z,5.96
2023-01-09T02:11:36.525Z,5.62
2023-01-09T02:12:36.491Z,6.53
2023-01-09T02:13:36.456Z,5.80
2023-01-09T02:14:36.449Z,6.23
2023-01-09T02:15:36.398Z,7.05
2023-01-09T02:16:36.370Z,6.36
2023-01-09T02:17:36.328Z,5.95
2023-01-09T02:18:36.300Z,6.56
2023-01-09T02:19:36.262Z,6.34
2023-01-09T02:20:36.238Z,7.00
2023-01-09T02:21:36.200Z,6.50
2023-01-09T02:22:36.167Z,5.98
2023-01-09T02:23:36.145Z,6.34
2023-01-09T02:24:36.114Z,6.16
2023-01-09T02:25:36.074Z,6.13
2023-01-09T02:26:36.057Z,6.08
2023-01-09T02:27:36.016Z,6.58
2023-01-09T02:28:35.993Z,6.12
2023-01-09T02:29:35.964Z,6.08
2023-01-09T02:30:35.944Z,6.54
2023-01-09T02:31:36.000Z,6.74
2023-01-09T02:32:35.864Z,6.72
2023-01-09T02:33:35.827Z,6.60
2023-01-09T02:34:35.805Z,6.07
2023-01-09T02:35:35.774Z,5.93
2023-01-09T02:36:35.742Z,6.26
2023-01-09T02:37:35.709Z,6.10
2023-01-09T02:38:35.688Z,6.46
2023-01-09T02:39:35.652Z,6.37
2023-01-09T02:40:35.621Z,5.97
2023-01-09T02:41:35.595Z,5.96
2023-01-09T02:42:35.579Z,6.49
2023-01-09T02:43:35.547Z,6.03
2023-01-09T02:44:35.530Z,5.91
2023-01-09T02:45:35.538Z,6.12
2023-01-09T02:46:35.474Z,6.38
2023-01-09T02:47:35.420Z,6.24
2023-01-09T02:48:35.397Z,5.90
2023-01-09T02:49:35.354Z,6.27
2023-01-09T02:50:35.323Z,5.65
2023-01-09T02:51:35.299Z,5.92
2023-01-09T02:52:35.283Z,6.23
2023-01-09T02:53:35.240Z,6.53
2023-01-09T02:54:35.203Z,6.61
2023-01-09T02:55:35.163Z,6.82
2023-01-09T02:56:35.137Z,6.49
2023-01-09T02:57:35.100Z,6.32
2023-01-09T02:58:35.073Z,5.86
2023-01-09T02:59:35.034Z,6.14
2023-01-09T03:00:34.999Z,6.46
2023-01-09T03:01:35.056Z,5.68
2023-01-09T03:02:35.002Z,6.57
2023-01-09T03:03:34.911Z,6.16
2023-01-09T03:04:34.875Z,5.95
2023-01-09T03:05:34.856Z,5.75
2023-01-09T03:06:34.824Z,5.83
2023-01-09T03:07:34.844Z,6.04
2023-01-09T03:08:34.750Z,5.97
2023-01-09T03:09:34.720Z,6.06
2023-01-09T03:10:34.695Z,5.84
2023-01-09T03:11:34.671Z,5.34
2023-01-09T03:12:34.643Z,5.40
2023-01-09T03:13:34.616Z,5.92
2023-01-09T03:14:34.589Z,6.09
2023-01-09T03:15:34.568Z,5.36
2023-01-09T03:16:34.597Z,6.30
2023-01-09T03:17:34.496Z,5.84
2023-01-09T03:18:34.497Z,6.71
2023-01-09T03:19:34.441Z,5.39
2023-01-09T03:20:34.413Z,6.33
2023-01-09T03:21:34.380Z,5.97
2023-01-09T03:22:34.354Z,6.27
2023-01-09T03:23:34.323Z,5.79
2023-01-09T03:24:34.306Z,6.07
2023-01-09T03:25:34.272Z,5.75
2023-01-09T03:26:34.266Z,6.52
2023-01-09T03:27:34.209Z,5.36
2023-01-09T03:28:34.172Z,5.78
2023-01-09T03:29:34.146Z,6.51
2023-01-09T03:30:34.125Z,6.02
2023-01-09T03:31:34.118Z,5.77
2023-01-09T03:32:34.046Z,5.69
2023-01-09T03:33:34.021Z,5.36
2023-01-09T03:34:34.012Z,5.18
2023-01-09T03:35:33.955Z,5.59
2023-01-09T03:36:33.935Z,5.99
2023-01-09T03:37:33.881Z,6.06
2023-01-09T03:38:33.851Z,5.93
2023-01-09T03:39:33.819Z,5.53
2023-01-09T03:40:33.784Z,5.47
2023-01-09T03:41:33.747Z,6.24
2023-01-09T03:42:33.717Z,5.44
2023-01-09T03:43:33.703Z,6.41
2023-01-09T03:44:33.667Z,6.20
2023-01-09T03:45:33.713Z,5.97
2023-01-09T03:46:33.586Z,5.70
2023-01-09T03:47:33.545Z,6.52
2023-01-09T03:48:33.513Z,6.12
2023-01-09T03:49:33.496Z,6.45
2023-01-09T03:50:33.470Z,5.69
2023-01-09T03:51:33.407Z,6.86
2023-01-09T03:52:33.376Z,5.61
2023-01-09T03:53:33.341Z,5.45
2023-01-09T03:54:33.308Z,6.04
2023-01-09T03:55:33.277Z,5.51
2023-01-09T03:56:33.238Z,6.08
2023-01-09T03:57:33.217Z,5.38
2023-01-09T03:58:33.176Z,6.33
2023-01-09T03:59:33.147Z,6.11
2023-01-09T04:00:33.111Z,6.39
2023-01-09T04:01:33.257Z,6.22
2023-01-09T04:02:33.055Z,6.24
2023-01-09T04:03:33.065Z,5.80
2023-01-09T04:04:32.972Z,5.53
2023-01-09T04:05:32.939Z,5.21
2023-01-09T04:06:32.935Z,5.77
2023-01-09T04:07:32.866Z,5.89
2023-01-09T04:08:32.830Z,5.28
2023-01-09T04:09:32.798Z,5.47
2023-01-09T04:10:32.760Z,5.61
2023-01-09T04:11:32.723Z,5.79
2023-01-09T04:12:32.687Z,5.86
2023-01-09T04:13:32.646Z,6.17
2023-01-09T04:14:32.608Z,5.86
2023-01-09T04:15:32.580Z,5.61
2023-01-09T04:16:32.574Z,5.71
2023-01-09T04:17:32.518Z,5.26
2023-01-09T04:18:32.473Z,5.59
2023-01-09T04:19:32.447Z,6.02
2023-01-09T04:20:32.415Z,6.00
2023-01-09T04:21:32.380Z,4.96
2023-01-09T04:22:32.372Z,5.79
2023-01-09T04:23:32.317Z,6.21
2023-01-09T04:24:32.298Z,5.42
2023-01-09T04:25:32.250Z,5.71
2023-01-09T04:26:32.219Z,5.51
2023-01-09T04:27:32.195Z,5.76
2023-01-09T04:28:32.159Z,6.22
2023-01-09T04:29:32.909Z,5.86
2023-01-09T04:30:32.109Z,5.57
2023-01-09T04:31:32.118Z,5.57
2023-01-09T04:32:32.044Z,5.87
2023-01-09T04:33:32.013Z,5.06
2023-01-09T04:34:31.993Z,5.48
2023-01-09T04:35:31.972Z,5.32
2023-01-09T04:36:31.935Z,5.43
2023-01-09T04:37:31.910Z,4.77
2023-01-09T04:38:31.911Z,5.76
2023-01-09T04:39:31.844Z,5.87
2023-01-09T04:40:31.855Z,5.58
2023-01-09T04:41:31.784Z,5.03
2023-01-09T04:42:31.756Z,5.94
2023-01-09T04:43:31.763Z,5.01
2023-01-09T04:44:31.701Z,5.71
2023-01-09T04:45:31.743Z,5.21
2023-01-09T04:46:31.643Z,5.05
2023-01-09T04:47:31.619Z,5.13
2023-01-09T04:48:31.609Z,4.89
2023-01-09T04:49:31.550Z,5.24
2023-01-09T04:50:31.652Z,4.89
2023-01-09T04:51:31.494Z,5.55
2023-01-09T04:52:31.456Z,5.08
2023-01-09T04:53:31.436Z,5.77
2023-01-09T04:54:31.420Z,5.05
2023-01-09T04:55:31.361Z,5.29
2023-01-09T04:56:31.345Z,5.23
2023-01-09T04:57:31.304Z,5.40
2023-01-09T04:58:31.273Z,5.70
2023-01-09T04:59:31.239Z,5.06
2023-01-09T05:00:31.244Z,4.96
2023-01-09T05:01:31.396Z,5.44
2023-01-09T05:02:31.144Z,5.58
2023-01-09T05:03:31.115Z,5.45
2023-01-09T05:04:31.112Z,5.36
2023-01-09T05:05:31.051Z,5.34
2023-01-09T05:06:31.017Z,5.14
2023-01-09T05:07:31.010Z,4.94
2023-01-09T05:08:30.971Z,5.57
2023-01-09T05:09:30.914Z,5.36
2023-01-09T05:10:30.916Z,5.35
2023-01-09T05:11:30.853Z,4.82
2023-01-09T05:12:30.823Z,4.88
2023-01-09T05:13:30.820Z,4.63
2023-01-09T05:14:30.757Z,5.49
2023-01-09T05:15:30.724Z,5.53
2023-01-09T05:16:30.726Z,5.73
2023-01-09T05:17:30.653Z,4.27
2023-01-09T05:18:30.618Z,4.96
2023-01-09T05:19:30.621Z,5.09
2023-01-09T05:20:30.561Z,4.88
2023-01-09T05:21:30.514Z,5.33
2023-01-09T05:22:30.482Z,4.80
2023-01-09T05:23:30.450Z,5.49
2023-01-09T05:24:30.430Z,5.17
2023-01-09T05:25:30.393Z,5.31
2023-01-09T05:26:30.386Z,5.29
2023-01-09T05:27:30.377Z,5.03
2023-01-09T05:28:30.299Z,4.34
2023-01-09T05:29:30.276Z,4.68
2023-01-09T05:30:30.245Z,5.60
2023-01-09T05:31:30.302Z,5.56
2023-01-09T05:32:30.181Z,4.92
2023-01-09T05:33:30.149Z,5.25
2023-01-09T05:34:30.126Z,4.75
2023-01-09T05:35:30.088Z,5.12
2023-01-09T05:36:30.062Z,4.89
2023-01-09T05:37:30.034Z,4.58
2023-01-09T05:38:30.011Z,4.90
2023-01-09T05:39:29.980Z,5.07
2023-01-09T05:40:39.583Z,4.92
2023-01-09T05:41:29.919Z,5.37
2023-01-09T05:42:29.907Z,5.58
2023-01-09T05:43:29.857Z,4.74
2023-01-09T05:44:29.855Z,4.59
2023-01-09T05:45:29.894Z,4.72
2023-01-09T05:46:29.780Z,4.80
2023-01-09T05:47:29.756Z,4.67
2023-01-09T05:48:29.723Z,4.47
2023-01-09T05:49:29.691Z,5.05
2023-01-09T05:50:29.666Z,4.21
2023-01-09T05:51:29.637Z,5.19
2023-01-09T05:52:29.642Z,5.08
2023-01-09T05:53:29.583Z,5.03
2023-01-09T05:54:29.561Z,5.24
2023-01-09T05:55:29.526Z,4.12
2023-01-09T05:56:29.509Z,4.82
2023-01-09T05:57:29.503Z,5.30
2023-01-09T05:58:29.472Z,4.62
2023-01-09T05:59:29.418Z,4.97
2023-01-09T06:00:29.393Z,5.08
2023-01-09T06:01:29.457Z,4.76
2023-01-09T06:02:29.439Z,4.72
2023-01-09T06:03:29.340Z,4.81
2023-01-09T06:04:29.479Z,4.76
2023-01-09T06:05:29.270Z,4.55
2023-01-09T06:06:29.270Z,4.05
2023-01-09T06:07:29.232Z,4.58
2023-01-09T06:08:29.207Z,4.96
2023-01-09T06:09:29.160Z,5.11
2023-01-09T06:10:29.141Z,4.71
2023-01-09T06:11:29.116Z,4.57
2023-01-09T06:12:29.075Z,5.18
2023-01-09T06:13:29.048Z,5.40
2023-01-09T06:14:29.049Z,4.58
2023-01-09T06:15:28.994Z,4.83
2023-01-09T06:16:28.974Z,5.02
2023-01-09T06:17:28.958Z,4.75
2023-01-09T06:18:28.906Z,4.87
2023-01-09T06:19:28.876Z,4.96
2023-01-09T06:20:28.844Z,4.49
2023-01-09T06:21:29.437Z,4.93
2023-01-09T06:22:29.413Z,5.64
2023-01-09T06:23:28.760Z,4.54
2023-01-09T06:24:28.739Z,4.21
2023-01-09T06:25:28.700Z,4.81
2023-01-09T06:26:28.937Z,4.59
2023-01-09T06:27:28.642Z,4.82
2023-01-09T06:28:28.626Z,4.86
2023-01-09T06:29:28.577Z,3.71
2023-01-09T06:30:28.659Z,4.96
2023-01-09T06:31:28.544Z,4.74
2023-01-09T06:32:28.485Z,4.45
2023-01-09T06:33:28.453Z,4.63
2023-01-09T06:34:28.444Z,4.25
2023-01-09T06:35:28.385Z,5.13
2023-01-09T06:36:28.356Z,4.66
2023-01-09T06:37:28.327Z,4.53
2023-01-09T06:38:28.284Z,4.01
2023-01-09T06:39:28.479Z,4.70
2023-01-09T06:40:28.213Z,4.53
2023-01-09T06:41:28.202Z,4.52
2023-01-09T06:42:28.154Z,4.11
2023-01-09T06:43:28.117Z,4.53
2023-01-09T06:44:28.462Z,4.87
2023-01-09T06:45:28.049Z,4.30
2023-01-09T06:46:28.110Z,4.20
2023-01-09T06:47:27.999Z,4.56
2023-01-09T06:48:27.951Z,4.15
2023-01-09T06:49:27.897Z,4.28
2023-01-09T06:50:27.897Z,4.79
2023-01-09T06:51:27.848Z,4.72
2023-01-09T06:52:27.838Z,4.56
2023-01-09T06:53:27.950Z,4.27
2023-01-09T06:54:28.763Z,4.54
2023-01-09T06:55:27.724Z,4.44
2023-01-09T06:56:27.691Z,4.32
2023-01-09T06:57:27.698Z,4.72
2023-01-09T06:58:27.955Z,3.80
2023-01-09T06:59:27.600Z,4.11
2023-01-09T07:00:27.572Z,4.39
2023-01-09T07:01:27.638Z,4.52
2023-01-09T07:02:27.550Z,3.98
2023-01-09T07:03:27.955Z,4.28
2023-01-09T07:04:27.519Z,4.50
2023-01-09T07:05:27.410Z,3.39
2023-01-09T07:06:27.405Z,4.08
2023-01-09T07:07:27.360Z,4.59
2023-01-09T07:08:27.457Z,4.11
2023-01-09T07:09:27.300Z,4.34
2023-01-09T07:10:27.275Z,4.14
2023-01-09T07:11:27.241Z,4.26
2023-01-09T07:12:27.218Z,4.47
2023-01-09T07:13:27.183Z,3.90
2023-01-09T07:14:27.146Z,3.83
2023-01-09T07:15:27.125Z,4.53
2023-01-09T07:16:27.084Z,4.85
2023-01-09T07:17:28.459Z,4.55
2023-01-09T07:18:27.049Z,4.11
2023-01-09T07:19:27.018Z,3.98
2023-01-09T07:20:26.964Z,3.77
2023-01-09T07:21:26.931Z,4.26
2023-01-09T07:22:26.896Z,3.39
2023-01-09T07:23:26.967Z,4.03
2023-01-09T07:24:26.964Z,4.78
2023-01-09T07:25:26.795Z,4.12
2023-01-09T07:26:26.755Z,3.90
2023-01-09T07:27:26.716Z,4.09
2023-01-09T07:28:26.679Z,4.34
2023-01-09T07:29:26.654Z,3.88
2023-01-09T07:30:26.660Z,3.97
2023-01-09T07:31:26.686Z,4.13
2023-01-09T07:32:26.547Z,3.90
2023-01-09T07:33:26.518Z,4.42
2023-01-09T07:34:26.511Z,3.70
2023-01-09T07:35:26.451Z,3.96
2023-01-09T07:36:26.423Z,3.97
2023-01-09T07:37:26.389Z,4.42
2023-01-09T07:38:26.478Z,4.17
2023-01-09T07:39:26.325Z,4.28
2023-01-09T07:40:26.294Z,3.98
2023-01-09T07:41:26.262Z,4.59
2023-01-09T07:42:26.225Z,3.42
2023-01-09T07:43:26.464Z,3.62
2023-01-09T07:44:26.184Z,3.71
2023-01-09T07:45:26.123Z,3.42
2023-01-09T07:46:26.520Z,3.59
2023-01-09T07:47:26.069Z,3.92
2023-01-09T07:48:27.005Z,3.97
2023-01-09T07:49:26.984Z,3.81
2023-01-09T07:50:25.969Z,3.94
2023-01-09T07:51:25.911Z,4.16
2023-01-09T07:52:25.984Z,4.20
2023-01-09T07:53:25.851Z,3.96
2023-01-09T07:54:25.811Z,4.11
2023-01-09T07:55:25.771Z,3.71
2023-01-09T07:56:26.727Z,3.71
2023-01-09T07:57:25.712Z,4.15
2023-01-09T07:58:25.669Z,3.49
2023-01-09T07:59:25.637Z,3.76
2023-01-09T08:00:25.972Z,4.18
2023-01-09T08:01:25.642Z,3.75
2023-01-09T08:02:25.647Z,4.06
2023-01-09T08:03:25.500Z,3.76
2023-01-09T08:04:25.481Z,3.62
2023-01-09T08:05:25.481Z,3.44
2023-01-09T08:06:25.424Z,3.69
2023-01-09T08:07:25.361Z,3.53
2023-01-09T08:08:25.331Z,3.56
2023-01-09T08:09:25.294Z,3.42
2023-01-09T08:10:25.483Z,4.19
2023-01-09T08:11:25.439Z,3.42
2023-01-09T08:12:25.194Z,3.89
2023-01-09T08:13:25.178Z,3.84
2023-01-09T08:14:25.491Z,4.12
2023-01-09T08:15:25.111Z,4.08
2023-01-09T08:16:25.068Z,3.19
2023-01-09T08:17:26.549Z,3.71
2023-01-09T08:18:25.139Z,3.88
2023-01-09T08:19:25.508Z,3.50
2023-01-09T08:20:25.095Z,3.02
2023-01-09T08:21:25.054Z,3.61
2023-01-09T08:22:25.058Z,3.71
2023-01-09T08:23:24.989Z,3.39
2023-01-09T08:24:24.991Z,3.86
2023-01-09T08:25:24.983Z,3.40
2023-01-09T08:26:24.895Z,3.61
2023-01-09T08:27:24.872Z,4.32
2023-01-09T08:28:24.812Z,3.93
2023-01-09T08:29:24.987Z,3.84
2023-01-09T08:30:24.809Z,3.64
2023-01-09T08:31:24.728Z,3.93
2023-01-09T08:32:24.680Z,3.94
2023-01-09T08:33:24.651Z,3.57
2023-01-09T08:34:24.983Z,3.84
2023-01-09T08:35:24.575Z,3.89
2023-01-09T08:36:24.606Z,3.80
2023-01-09T08:37:24.532Z,3.63
2023-01-09T08:38:24.511Z,3.63
2023-01-09T08:39:24.536Z,3.68
2023-01-09T08:40:24.408Z,4.13
2023-01-09T08:41:24.370Z,3.54
2023-01-09T08:42:24.357Z,3.76
2023-01-09T08:43:24.294Z,3.29
2023-01-09T08:44:24.314Z,3.25
2023-01-09T08:45:24.488Z,3.32
2023-01-09T08:46:24.263Z,3.82
2023-01-09T09:57:28.901Z,3.14
2023-01-09T10:31:19.826Z,4.00
2023-01-09T10:33:19.654Z,3.57
2023-01-09T10:34:19.632Z,3.32
2023-01-09T10:35:19.580Z,3.66
2023-01-09T10:36:19.500Z,3.73
2023-01-09T10:37:19.562Z,3.93
2023-01-09T10:38:20.403Z,3.93
2023-01-09T10:39:19.352Z,4.37
2023-01-09T10:41:19.277Z,3.67
2023-01-09T10:42:19.539Z,3.55
2023-01-09T10:44:19.142Z,3.82
2023-01-09T10:45:19.564Z,3.58
2023-01-09T10:46:19.039Z,5.44
2023-01-09T10:47:18.983Z,3.66
2023-01-09T10:48:18.974Z,3.87
2023-01-09T10:49:19.166Z,3.65
2023-01-09T10:50:18.834Z,3.97
2023-01-09T10:51:18.795Z,3.38
2023-01-09T10:52:19.031Z,3.96
2023-01-09T10:53:18.743Z,3.86
2023-01-09T10:54:18.657Z,3.70
2023-01-09T10:55:18.622Z,3.52
2023-01-09T10:56:18.549Z,3.94
2023-01-09T10:57:18.508Z,3.96
2023-01-09T10:58:18.472Z,5.10
2023-01-09T10:59:18.470Z,3.31
2023-01-09T11:00:18.367Z,3.70
2023-01-09T11:01:18.378Z,3.26
2023-01-09T11:02:18.627Z,3.87
2023-01-09T11:03:18.256Z,3.30
2023-01-09T11:04:18.186Z,3.36
2023-01-09T11:05:18.176Z,3.24
2023-01-09T11:06:18.092Z,2.79
2023-01-09T11:07:18.548Z,4.08
2023-01-09T11:08:18.084Z,3.25
2023-01-09T11:09:17.955Z,3.20
2023-01-09T11:10:18.015Z,3.47
2023-01-09T11:11:17.869Z,3.51
2023-01-09T11:12:17.836Z,3.46
2023-01-09T11:13:17.782Z,3.64
2023-01-09T11:14:17.740Z,3.42
2023-01-09T11:15:17.700Z,3.54
2023-01-09T11:16:17.763Z,3.38
2023-01-09T11:17:19.063Z,3.52
2023-01-09T13:52:11.505Z,2.63
2023-01-09T13:56:11.665Z,4.13
2023-01-09T13:57:11.445Z,4.91
2023-01-09T14:00:11.319Z,5.07
2023-01-09T14:01:11.637Z,7.42
2023-01-09T14:02:11.247Z,5.30
2023-01-09T14:03:12.677Z,6.06
2023-01-09T14:04:12.834Z,7.05
2023-01-09T14:05:12.353Z,5.68
2023-01-09T14:06:11.141Z,5.99
2023-01-09T14:07:11.088Z,5.76
2023-01-09T14:08:10.017Z,7.51
2023-01-09T14:09:10.970Z,6.77
2023-01-09T14:10:11.143Z,6.37
2023-01-09T14:11:11.103Z,6.58
2023-01-09T14:12:10.849Z,6.45
2023-01-09T14:13:10.838Z,6.33
2023-01-09T14:14:10.772Z,7.03
2023-01-09T14:15:10.742Z,6.57
2023-01-09T14:16:11.236Z,6.53
2023-01-09T14:17:10.686Z,5.96
2023-01-09T14:18:10.617Z,7.16
2023-01-09T14:19:10.585Z,6.49
2023-01-09T14:20:10.680Z,7.23
2023-01-09T14:21:10.609Z,7.35
2023-01-09T14:22:10.484Z,6.50
2023-01-09T14:23:31.487Z,7.11
2023-01-09T14:24:10.420Z,7.69
2023-01-09T14:25:10.384Z,7.68
2023-01-09T14:26:10.767Z,6.64
2023-01-09T14:27:10.303Z,8.05
2023-01-09T14:28:10.278Z,7.67
2023-01-09T14:29:10.270Z,7.59
2023-01-09T14:30:10.232Z,8.08
2023-01-09T14:31:10.187Z,8.07
2023-01-09T14:32:10.135Z,8.59
2023-01-09T14:33:10.107Z,8.95
2023-01-09T14:34:23.367Z,8.53
2023-01-09T14:35:10.025Z,9.17
2023-01-09T14:36:10.007Z,8.70
2023-01-09T14:37:10.015Z,9.57
2023-01-09T14:38:10.113Z,10.25
2023-01-09T14:39:09.893Z,9.64
2023-01-09T14:40:09.916Z,9.24
2023-01-09T14:41:10.116Z,10.07
2023-01-09T14:42:09.749Z,9.26
2023-01-09T14:43:09.702Z,9.93
2023-01-09T14:44:09.661Z,8.63
2023-01-09T14:45:09.652Z,8.44
2023-01-09T14:46:09.692Z,8.63
2023-01-09T14:47:09.538Z,9.49
2023-01-09T14:48:09.511Z,8.48
2023-01-09T14:49:09.473Z,8.77
2023-01-09T14:50:09.493Z,8.82
2023-01-09T14:51:09.613Z,9.43
2023-01-09T14:52:09.332Z,8.42
2023-01-09T14:53:09.278Z,8.89
2023-01-09T14:54:09.237Z,8.25
2023-01-09T14:55:09.198Z,8.16
2023-01-09T14:56:09.622Z,7.84
2023-01-09T14:57:09.612Z,11.22
2023-01-09T14:58:09.078Z,9.65
2023-01-09T14:59:09.035Z,8.20
2023-01-09T15:00:09.074Z,8.19
2023-01-09T15:01:09.063Z,7.71
2023-01-09T15:02:08.950Z,8.51
2023-01-09T15:03:08.862Z,8.56
2023-01-09T15:04:08.809Z,8.51
2023-01-09T15:05:09.775Z,7.85
2023-01-09T15:06:08.725Z,7.90
2023-01-09T15:07:09.139Z,8.94
2023-01-09T15:08:08.650Z,6.91
2023-01-09T15:09:08.612Z,7.44
2023-01-09T15:10:08.631Z,8.60
2023-01-09T15:11:08.532Z,7.83
2023-01-09T15:12:08.639Z,7.55
2023-01-09T15:13:08.451Z,8.44
2023-01-09T15:14:08.416Z,7.92
2023-01-09T15:15:08.361Z,7.77
2023-01-09T15:16:08.364Z,8.05
2023-01-09T15:17:08.303Z,7.76
2023-01-09T15:18:08.268Z,7.94
2023-01-09T15:19:08.200Z,8.25
2023-01-09T15:20:08.223Z,7.77
2023-01-09T15:21:08.129Z,8.16
2023-01-09T15:22:08.123Z,7.94
2023-01-09T15:23:08.038Z,8.45
2023-01-09T15:24:08.009Z,7.65
2023-01-09T15:25:08.123Z,7.85
2023-01-09T15:26:07.935Z,8.97
2023-01-09T15:27:07.897Z,7.57
2023-01-09T15:28:07.853Z,7.96
2023-01-09T15:29:07.813Z,8.47
2023-01-09T15:30:07.949Z,7.28
2023-01-09T15:31:07.746Z,7.85
2023-01-09T15:32:08.125Z,7.51
2023-01-09T15:33:07.698Z,7.54
2023-01-09T15:34:07.623Z,7.72
2023-01-09T15:36:07.626Z,7.69
2023-01-09T15:37:07.936Z,7.89
2023-01-09T15:41:07.636Z,7.55
2023-01-09T18:46:00.442Z,5.28
2023-01-09T18:47:01.936Z,5.27
2023-01-09T18:48:00.210Z,5.31
2023-01-09T18:49:00.186Z,5.60
2023-01-09T18:50:00.329Z,5.57
2023-01-09T18:51:00.119Z,5.67
2023-01-09T18:52:00.088Z,5.31
2023-01-09T18:53:00.035Z,6.06
2023-01-09T18:53:59.994Z,5.83
2023-01-09T18:54:59.959Z,5.47
2023-01-09T18:55:59.919Z,5.35
2023-01-09T18:56:59.885Z,5.68
2023-01-09T18:57:59.859Z,5.92
2023-01-09T18:58:59.833Z,5.62
2023-01-09T18:59:59.781Z,5.61
2023-01-09T19:00:59.794Z,6.04
2023-01-09T19:02:02.015Z,5.33
2023-01-09T19:02:59.666Z,5.28
2023-01-09T19:03:59.750Z,5.11
2023-01-09T19:04:59.606Z,5.31
2023-01-09T19:05:59.554Z,6.14
2023-01-09T19:06:59.535Z,5.11
2023-01-09T19:07:59.479Z,5.87
2023-01-09T19:08:59.449Z,5.39
2023-01-09T19:09:59.423Z,5.70
2023-01-09T19:10:59.380Z,5.22
2023-01-09T19:11:59.346Z,5.65
2023-01-09T19:12:59.698Z,6.20
2023-01-09T19:13:59.254Z,6.05
2023-01-09T19:14:59.209Z,6.15
2023-01-09T19:15:59.240Z,6.01
2023-01-09T19:16:59.193Z,4.68
2023-01-09T19:17:59.092Z,6.35
2023-01-09T19:18:59.060Z,5.59
2023-01-09T19:19:59.039Z,5.75
2023-01-09T19:20:59.010Z,5.80
2023-01-09T19:21:58.951Z,5.84
2023-01-09T19:22:58.903Z,5.81
2023-01-09T19:23:58.933Z,5.85
2023-01-09T19:24:58.824Z,5.64
2023-01-09T19:25:58.811Z,5.10
2023-01-09T19:26:58.749Z,6.08
2023-01-09T19:27:58.708Z,6.06
2023-01-09T19:28:58.669Z,6.37
2023-01-09T19:29:58.641Z,6.22
2023-01-09T19:30:58.593Z,5.96
2023-01-09T19:31:58.683Z,5.61
2023-01-09T19:32:58.542Z,6.02
2023-01-09T19:33:58.482Z,5.99
2023-01-09T19:34:58.435Z,6.12
2023-01-09T19:35:58.392Z,5.82
2023-01-09T19:36:58.423Z,6.19
2023-01-09T19:37:58.311Z,6.29
2023-01-09T19:38:58.272Z,5.93
2023-01-09T19:39:58.227Z,5.73
2023-01-09T19:40:58.175Z,5.71
2023-01-09T19:41:58.133Z,5.81
2023-01-09T19:42:58.099Z,6.15
2023-01-09T19:43:58.071Z,5.88
2023-01-09T19:44:58.030Z,5.88
2023-01-09T19:45:58.146Z,6.44
2023-01-09T19:46:57.959Z,5.68
2023-01-09T19:47:57.923Z,5.67
2023-01-09T19:48:57.905Z,6.46
2023-01-09T19:49:57.838Z,6.51
2023-01-09T19:50:57.803Z,5.94
2023-01-09T19:51:57.758Z,5.70
2023-01-09T19:52:57.721Z,6.18
2023-01-09T19:53:57.677Z,5.72
2023-01-09T20:14:56.819Z,5.50
2023-01-09T20:15:56.780Z,5.60
2023-01-09T20:16:56.748Z,5.96
2023-01-09T20:17:56.701Z,6.02
2023-01-09T20:18:57.812Z,6.13
2023-01-09T20:19:56.635Z,5.44
2023-01-09T20:20:56.632Z,5.56
2023-01-09T20:21:56.560Z,6.12
2023-01-09T20:49:55.459Z,6.15
2023-01-09T20:50:55.422Z,6.01
2023-01-09T20:51:55.407Z,5.75
2023-01-09T20:52:55.376Z,5.97
2023-01-09T20:53:55.306Z,5.74
2023-01-09T20:54:55.269Z,6.16
2023-01-09T20:55:55.291Z,5.30
2023-01-09T20:56:55.181Z,6.15
2023-01-09T20:57:55.151Z,6.02
2023-01-09T20:58:55.116Z,5.78
2023-01-09T20:59:55.061Z,5.82
2023-01-09T21:00:55.064Z,6.29
2023-01-09T21:01:54.978Z,6.12
2023-01-09T21:02:54.941Z,5.05
2023-01-09T21:03:54.967Z,6.12
2023-01-09T21:04:54.853Z,5.70
2023-01-09T21:05:54.814Z,5.38
2023-01-09T21:06:54.776Z,5.65
2023-01-09T21:07:54.729Z,5.88
2023-01-09T21:08:54.720Z,6.26
2023-01-09T21:09:54.646Z,5.71
2023-01-09T21:10:54.608Z,5.84
2023-01-09T21:11:54.581Z,5.75
2023-01-09T21:12:54.536Z,5.99
2023-01-09T21:13:54.492Z,6.29
2023-01-09T21:14:54.448Z,5.72
2023-01-09T21:15:54.426Z,6.42
2023-01-09T21:16:55.373Z,5.36
2023-01-09T21:17:54.335Z,5.33
2023-01-09T21:18:54.302Z,5.42
2023-01-09T21:19:54.253Z,5.94
2023-01-09T21:20:54.223Z,5.26
2023-01-09T21:21:54.167Z,5.63
2023-01-09T21:22:54.135Z,5.46
2023-01-09T21:23:54.121Z,5.87
2023-01-09T21:24:54.080Z,6.46
2023-01-09T21:25:54.021Z,5.52
2023-01-09T21:26:53.983Z,5.95
2023-01-09T21:27:53.952Z,5.24
2023-01-09T21:28:53.928Z,5.09
2023-01-09T21:29:53.862Z,6.05
2023-01-09T21:30:53.815Z,5.34
2023-01-09T21:31:56.095Z,5.12
2023-01-09T21:32:53.750Z,5.57
2023-01-09T21:33:53.690Z,5.86
2023-01-09T21:34:53.662Z,6.47
2023-01-09T21:35:53.612Z,6.15
2023-01-09T21:36:53.607Z,6.02
2023-01-09T21:37:53.526Z,5.68
2023-01-09T21:38:53.495Z,5.63
2023-01-09T21:39:53.437Z,5.79
2023-01-09T21:40:53.429Z,5.74
2023-01-09T21:41:53.370Z,5.63
2023-01-09T21:42:53.314Z,5.23
2023-01-09T21:43:53.277Z,5.64
2023-01-09T21:44:53.230Z,6.08
2023-01-09T21:45:53.307Z,6.00
2023-01-09T21:46:53.184Z,5.65
2023-01-09T21:47:53.105Z,5.57
2023-01-09T21:48:53.073Z,5.76
2023-01-09T21:49:53.024Z,5.35
2023-01-09T21:50:52.985Z,5.46
2023-01-09T21:51:52.958Z,5.37
2023-01-09T21:52:52.909Z,4.75
2023-01-09T21:53:52.872Z,5.48
2023-01-09T21:54:52.824Z,5.14
2023-01-09T21:55:55.135Z,5.81
2023-01-09T21:56:52.786Z,6.06
2023-01-09T21:57:52.711Z,5.66
2023-01-09T21:58:52.665Z,5.92
2023-01-09T21:59:52.657Z,5.21
2023-01-09T22:00:52.596Z,5.37
2023-01-09T22:01:52.553Z,5.70
2023-01-09T22:02:52.509Z,5.29
2023-01-09T22:03:52.492Z,5.07
2023-01-09T22:04:52.429Z,5.21
2023-01-09T22:05:52.382Z,5.87
2023-01-09T22:06:52.343Z,5.86
2023-01-09T22:07:52.302Z,5.47
2023-01-09T22:08:52.270Z,5.83
2023-01-09T22:09:52.301Z,5.69
2023-01-09T22:10:52.181Z,5.33
2023-01-09T22:11:52.168Z,5.36
2023-01-09T22:12:52.133Z,6.19
2023-01-09T22:13:52.058Z,5.22
2023-01-09T22:14:52.025Z,5.78
2023-01-09T22:15:51.984Z,5.18
2023-01-09T22:16:51.938Z,5.26
2023-01-09T22:17:51.889Z,5.20
2023-01-09T22:18:51.857Z,5.95
2023-01-09T22:19:51.827Z,5.53
2023-01-09T22:20:51.771Z,5.34
2023-01-09T22:21:51.725Z,5.79
2023-01-09T22:22:51.684Z,6.00
2023-01-09T22:23:51.635Z,5.00
2023-01-09T22:24:51.597Z,5.25
2023-01-09T22:25:51.571Z,5.52
2023-01-09T22:26:51.508Z,5.79